San Gregorio, California
Current Conditions -  °F | °C
As of 10:35 AM on Thursday 27 Nov 2014 (Local Time) from KHAF Reporting Station
Clear Clear  
Wind Chill: 63°   Ceiling: Unl
Heat Index: 63°   Visibility: 8mi
Dew Point: 50°   Wind: 3mph
Humidity: 63%   Direction: 280°W
Pressure: 30.17"   Gusts: NA
Location:  37.33°N, 122.39°W
Report Text: KHAF 271835Z AUTO 28003KT 8SM CLR 17/10 A3017 RMK AO2
Loading
Personal Weather Stations






























Interactive Weather Map New forecast layout! Learn more

10-Day Weather Forecast

Advertisements
Track Severe Weather on mobile